sensor_id;sensor_type;location;lat;lon;timestamp;temperature;humidity
15131;DHT22;7666;50.920;4.628;2022-12-18T00:00:40;-5.10;99.90
15131;DHT22;7666;50.920;4.628;2022-12-18T00:03:27;-5.00;99.90
15131;DHT22;7666;50.920;4.628;2022-12-18T00:06:13;-5.00;99.90
15131;DHT22;7666;50.920;4.628;2022-12-18T00:09:01;-5.00;99.90
15131;DHT22;7666;50.920;4.628;2022-12-18T00:11:47;-5.00;99.90
15131;DHT22;7666;50.920;4.628;2022-12-18T00:14:33;-5.00;99.90
15131;DHT22;7666;50.920;4.628;2022-12-18T00:17:19;-5.00;99.90
15131;DHT22;7666;50.920;4.628;2022-12-18T00:20:05;-5.10;99.90
15131;DHT22;7666;50.920;4.628;2022-12-18T00:22:52;-5.20;99.90
15131;DHT22;7666;50.920;4.628;2022-12-18T00:25:38;-5.20;99.90
15131;DHT22;7666;50.920;4.628;2022-12-18T00:28:24;-5.30;99.90
15131;DHT22;7666;50.920;4.628;2022-12-18T00:31:13;-5.30;99.90
15131;DHT22;7666;50.920;4.628;2022-12-18T00:34:00;-5.30;99.90
15131;DHT22;7666;50.920;4.628;2022-12-18T00:36:47;-5.20;99.90
15131;DHT22;7666;50.920;4.628;2022-12-18T00:39:34;-5.20;99.90
15131;DHT22;7666;50.920;4.628;2022-12-18T00:42:20;-5.20;99.90
15131;DHT22;7666;50.920;4.628;2022-12-18T00:45:30;-5.30;99.90
15131;DHT22;7666;50.920;4.628;2022-12-18T00:48:16;-5.50;99.90
15131;DHT22;7666;50.920;4.628;2022-12-18T00:51:02;-5.70;99.90
15131;DHT22;7666;50.920;4.628;2022-12-18T00:53:48;-5.70;99.90
15131;DHT22;7666;50.920;4.628;2022-12-18T00:56:36;-5.70;99.90
15131;DHT22;7666;50.920;4.628;2022-12-18T00:59:22;-5.60;99.90
15131;DHT22;7666;50.920;4.628;2022-12-18T01:02:08;-5.60;99.90
15131;DHT22;7666;50.920;4.628;2022-12-18T01:04:54;-5.50;99.90
15131;DHT22;7666;50.920;4.628;2022-12-18T01:07:40;-5.40;99.90
15131;DHT22;7666;50.920;4.628;2022-12-18T01:10:26;-5.30;99.90
15131;DHT22;7666;50.920;4.628;2022-12-18T01:13:13;-5.20;99.90
15131;DHT22;7666;50.920;4.628;2022-12-18T01:15:58;-5.00;99.90
15131;DHT22;7666;50.920;4.628;2022-12-18T01:18:44;-4.90;99.90
15131;DHT22;7666;50.920;4.628;2022-12-18T01:21:30;-4.70;99.90
15131;DHT22;7666;50.920;4.628;2022-12-18T01:24:16;-4.60;99.90
15131;DHT22;7666;50.920;4.628;2022-12-18T01:27:02;-4.70;99.90
15131;DHT22;7666;50.920;4.628;2022-12-18T01:29:49;-4.90;99.90
15131;DHT22;7666;50.920;4.628;2022-12-18T01:32:35;-5.00;99.90
15131;DHT22;7666;50.920;4.628;2022-12-18T01:35:21;-5.10;99.90
15131;DHT22;7666;50.920;4.628;2022-12-18T01:38:07;-5.20;99.90
15131;DHT22;7666;50.920;4.628;2022-12-18T01:40:58;-5.30;99.90
15131;DHT22;7666;50.920;4.628;2022-12-18T01:43:53;-5.40;99.90
15131;DHT22;7666;50.920;4.628;2022-12-18T01:46:40;-5.40;99.90
15131;DHT22;7666;50.920;4.628;2022-12-18T01:49:25;-5.40;99.90
15131;DHT22;7666;50.920;4.628;2022-12-18T01:52:12;-5.40;99.90
15131;DHT22;7666;50.920;4.628;2022-12-18T01:55:00;-5.50;99.90
15131;DHT22;7666;50.920;4.628;2022-12-18T01:57:47;-5.50;99.90
15131;DHT22;7666;50.920;4.628;2022-12-18T02:00:34;-5.50;99.90
15131;DHT22;7666;50.920;4.628;2022-12-18T02:03:20;-5.50;99.90
15131;DHT22;7666;50.920;4.628;2022-12-18T02:06:16;-5.60;99.90
15131;DHT22;7666;50.920;4.628;2022-12-18T02:09:15;-5.70;99.90
15131;DHT22;7666;50.920;4.628;2022-12-18T02:12:19;-5.70;99.90
15131;DHT22;7666;50.920;4.628;2022-12-18T02:15:27;-5.70;99.90
15131;DHT22;7666;50.920;4.628;2022-12-18T02:18:24;-5.60;99.90
15131;DHT22;7666;50.920;4.628;2022-12-18T02:21:30;-5.70;99.90
15131;DHT22;7666;50.920;4.628;2022-12-18T02:27:29;-5.80;99.90
15131;DHT22;7666;50.920;4.628;2022-12-18T02:30:18;-5.80;99.90
15131;DHT22;7666;50.920;4.628;2022-12-18T02:33:07;-5.80;99.90
15131;DHT22;7666;50.920;4.628;2022-12-18T02:35:55;-5.80;99.90
15131;DHT22;7666;50.920;4.628;2022-12-18T02:38:44;-5.70;99.90
15131;DHT22;7666;50.920;4.628;2022-12-18T02:41:31;-5.80;99.90
15131;DHT22;7666;50.920;4.628;2022-12-18T02:44:17;-6.00;99.90
15131;DHT22;7666;50.920;4.628;2022-12-18T02:47:03;-6.10;99.90
15131;DHT22;7666;50.920;4.628;2022-12-18T02:50:09;-6.10;99.90
15131;DHT22;7666;50.920;4.628;2022-12-18T02:56:06;-6.00;99.90
15131;DHT22;7666;50.920;4.628;2022-12-18T02:59:47;-6.00;99.90
15131;DHT22;7666;50.920;4.628;2022-12-18T03:03:04;-6.10;99.90
15131;DHT22;7666;50.920;4.628;2022-12-18T03:08:49;-6.10;99.90
15131;DHT22;7666;50.920;4.628;2022-12-18T03:11:42;-6.10;99.90
15131;DHT22;7666;50.920;4.628;2022-12-18T03:17:49;-6.10;99.90
15131;DHT22;7666;50.920;4.628;2022-12-18T03:20:39;-6.20;99.90
15131;DHT22;7666;50.920;4.628;2022-12-18T03:23:30;-6.30;99.90
15131;DHT22;7666;50.920;4.628;2022-12-18T03:26:20;-6.30;99.90
15131;DHT22;7666;50.920;4.628;2022-12-18T03:29:12;-6.50;99.90
15131;DHT22;7666;50.920;4.628;2022-12-18T03:32:09;-6.60;99.90
15131;DHT22;7666;50.920;4.628;2022-12-18T03:34:59;-6.70;99.90
15131;DHT22;7666;50.920;4.628;2022-12-18T03:37:46;-6.70;99.90
15131;DHT22;7666;50.920;4.628;2022-12-18T03:49:46;-6.60;99.90
15131;DHT22;7666;50.920;4.628;2022-12-18T03:55:30;-6.40;99.90
15131;DHT22;7666;50.920;4.628;2022-12-18T03:58:22;-6.40;99.90
15131;DHT22;7666;50.920;4.628;2022-12-18T04:01:12;-6.50;99.90
15131;DHT22;7666;50.920;4.628;2022-12-18T04:04:00;-6.60;99.90
15131;DHT22;7666;50.920;4.628;2022-12-18T04:06:48;-6.60;99.90
15131;DHT22;7666;50.920;4.628;2022-12-18T04:09:36;-6.50;99.90
15131;DHT22;7666;50.920;4.628;2022-12-18T04:12:29;-6.50;99.90
15131;DHT22;7666;50.920;4.628;2022-12-18T04:15:15;-6.40;99.90
15131;DHT22;7666;50.920;4.628;2022-12-18T04:18:01;-6.60;99.90
15131;DHT22;7666;50.920;4.628;2022-12-18T04:20:47;-6.70;99.90
15131;DHT22;7666;50.920;4.628;2022-12-18T04:23:33;-6.70;99.90
15131;DHT22;7666;50.920;4.628;2022-12-18T04:26:19;-6.70;99.90
15131;DHT22;7666;50.920;4.628;2022-12-18T04:29:05;-6.60;99.90
15131;DHT22;7666;50.920;4.628;2022-12-18T04:31:51;-6.50;99.90
15131;DHT22;7666;50.920;4.628;2022-12-18T04:34:37;-6.50;99.90
15131;DHT22;7666;50.920;4.628;2022-12-18T04:37:23;-6.50;99.90
15131;DHT22;7666;50.920;4.628;2022-12-18T04:40:10;-6.50;99.90
15131;DHT22;7666;50.920;4.628;2022-12-18T04:42:56;-6.40;99.90
15131;DHT22;7666;50.920;4.628;2022-12-18T04:45:42;-6.40;99.90
15131;DHT22;7666;50.920;4.628;2022-12-18T04:48:28;-6.40;99.90
15131;DHT22;7666;50.920;4.628;2022-12-18T04:51:14;-6.40;99.90
15131;DHT22;7666;50.920;4.628;2022-12-18T04:54:00;-6.40;99.90
15131;DHT22;7666;50.920;4.628;2022-12-18T04:56:46;-6.30;99.90
15131;DHT22;7666;50.920;4.628;2022-12-18T04:59:32;-6.40;99.90
15131;DHT22;7666;50.920;4.628;2022-12-18T05:02:18;-6.40;99.90
15131;DHT22;7666;50.920;4.628;2022-12-18T05:05:04;-6.50;99.90
15131;DHT22;7666;50.920;4.628;2022-12-18T05:07:50;-6.50;99.90
15131;DHT22;7666;50.920;4.628;2022-12-18T05:10:36;-6.60;99.90
15131;DHT22;7666;50.920;4.628;2022-12-18T05:13:22;-6.70;99.90
15131;DHT22;7666;50.920;4.628;2022-12-18T05:16:08;-6.70;99.90
15131;DHT22;7666;50.920;4.628;2022-12-18T05:18:54;-6.80;99.90
15131;DHT22;7666;50.920;4.628;2022-12-18T05:21:40;-6.90;99.90
15131;DHT22;7666;50.920;4.628;2022-12-18T05:24:26;-7.10;99.90
15131;DHT22;7666;50.920;4.628;2022-12-18T05:27:12;-7.10;99.90
15131;DHT22;7666;50.920;4.628;2022-12-18T05:29:58;-7.10;99.90
15131;DHT22;7666;50.920;4.628;2022-12-18T05:32:44;-7.20;99.90
15131;DHT22;7666;50.920;4.628;2022-12-18T05:35:30;-7.20;99.90
15131;DHT22;7666;50.920;4.628;2022-12-18T05:38:16;-7.20;99.90
15131;DHT22;7666;50.920;4.628;2022-12-18T05:41:02;-7.20;99.90
15131;DHT22;7666;50.920;4.628;2022-12-18T05:43:48;-7.10;99.90
15131;DHT22;7666;50.920;4.628;2022-12-18T05:46:34;-7.00;99.90
15131;DHT22;7666;50.920;4.628;2022-12-18T05:49:22;-6.90;99.90
15131;DHT22;7666;50.920;4.628;2022-12-18T05:52:08;-6.90;99.90
15131;DHT22;7666;50.920;4.628;2022-12-18T05:54:54;-7.00;99.90
15131;DHT22;7666;50.920;4.628;2022-12-18T05:57:40;-7.10;99.90
15131;DHT22;7666;50.920;4.628;2022-12-18T06:00:26;-7.20;99.90
15131;DHT22;7666;50.920;4.628;2022-12-18T06:03:13;-7.20;99.90
15131;DHT22;7666;50.920;4.628;2022-12-18T06:05:59;-7.10;99.90
15131;DHT22;7666;50.920;4.628;2022-12-18T06:08:45;-7.00;99.90
15131;DHT22;7666;50.920;4.628;2022-12-18T06:11:31;-7.00;99.90
15131;DHT22;7666;50.920;4.628;2022-12-18T06:14:17;-6.90;99.90
15131;DHT22;7666;50.920;4.628;2022-12-18T06:17:03;-6.90;99.90
15131;DHT22;7666;50.920;4.628;2022-12-18T06:19:49;-6.80;99.90
15131;DHT22;7666;50.920;4.628;2022-12-18T06:22:35;-6.80;99.90
15131;DHT22;7666;50.920;4.628;2022-12-18T06:25:21;-6.90;99.90
15131;DHT22;7666;50.920;4.628;2022-12-18T06:28:07;-6.90;99.90
15131;DHT22;7666;50.920;4.628;2022-12-18T06:30:53;-7.00;99.90
15131;DHT22;7666;50.920;4.628;2022-12-18T06:33:39;-7.10;99.90
15131;DHT22;7666;50.920;4.628;2022-12-18T06:36:25;-7.20;99.90
15131;DHT22;7666;50.920;4.628;2022-12-18T06:39:11;-7.20;99.90
15131;DHT22;7666;50.920;4.628;2022-12-18T06:41:57;-7.10;99.90
15131;DHT22;7666;50.920;4.628;2022-12-18T06:44:43;-7.10;99.90
15131;DHT22;7666;50.920;4.628;2022-12-18T06:47:29;-7.00;99.90
15131;DHT22;7666;50.920;4.628;2022-12-18T06:50:15;-6.80;99.90
15131;DHT22;7666;50.920;4.628;2022-12-18T06:53:01;-6.80;99.90
15131;DHT22;7666;50.920;4.628;2022-12-18T06:55:47;-6.70;99.90
15131;DHT22;7666;50.920;4.628;2022-12-18T06:58:33;-6.70;99.90
15131;DHT22;7666;50.920;4.628;2022-12-18T07:01:19;-6.60;99.90
15131;DHT22;7666;50.920;4.628;2022-12-18T07:04:05;-6.50;99.90
15131;DHT22;7666;50.920;4.628;2022-12-18T07:06:51;-6.40;99.90
15131;DHT22;7666;50.920;4.628;2022-12-18T07:09:37;-6.50;99.90
15131;DHT22;7666;50.920;4.628;2022-12-18T07:12:23;-6.60;99.90
15131;DHT22;7666;50.920;4.628;2022-12-18T07:15:09;-6.70;99.90
15131;DHT22;7666;50.920;4.628;2022-12-18T07:17:55;-6.90;99.90
15131;DHT22;7666;50.920;4.628;2022-12-18T07:20:41;-6.90;99.90
15131;DHT22;7666;50.920;4.628;2022-12-18T07:23:27;-6.80;99.90
15131;DHT22;7666;50.920;4.628;2022-12-18T07:26:14;-6.80;99.90
15131;DHT22;7666;50.920;4.628;2022-12-18T07:29:01;-6.60;99.90
15131;DHT22;7666;50.920;4.628;2022-12-18T07:31:47;-6.50;99.90
15131;DHT22;7666;50.920;4.628;2022-12-18T07:34:33;-6.40;99.90
15131;DHT22;7666;50.920;4.628;2022-12-18T07:37:19;-6.30;99.90
15131;DHT22;7666;50.920;4.628;2022-12-18T07:40:05;-6.20;99.90
15131;DHT22;7666;50.920;4.628;2022-12-18T07:42:51;-6.10;99.90
15131;DHT22;7666;50.920;4.628;2022-12-18T07:45:37;-6.10;99.90
15131;DHT22;7666;50.920;4.628;2022-12-18T07:48:24;-6.00;99.90
15131;DHT22;7666;50.920;4.628;2022-12-18T07:51:10;-6.00;99.90
15131;DHT22;7666;50.920;4.628;2022-12-18T07:53:56;-6.00;99.90
15131;DHT22;7666;50.920;4.628;2022-12-18T07:56:42;-5.90;99.90
15131;DHT22;7666;50.920;4.628;2022-12-18T07:59:28;-5.90;99.90
15131;DHT22;7666;50.920;4.628;2022-12-18T08:02:14;-5.80;99.90
15131;DHT22;7666;50.920;4.628;2022-12-18T08:05:00;-5.70;99.90
15131;DHT22;7666;50.920;4.628;2022-12-18T08:07:46;-5.50;99.90
15131;DHT22;7666;50.920;4.628;2022-12-18T08:10:32;-5.30;99.90
15131;DHT22;7666;50.920;4.628;2022-12-18T08:13:18;-5.10;99.90
15131;DHT22;7666;50.920;4.628;2022-12-18T08:16:06;-4.90;99.90
15131;DHT22;7666;50.920;4.628;2022-12-18T08:18:53;-4.60;99.90
15131;DHT22;7666;50.920;4.628;2022-12-18T08:21:39;-4.30;99.90
15131;DHT22;7666;50.920;4.628;2022-12-18T08:24:25;-3.90;99.90
15131;DHT22;7666;50.920;4.628;2022-12-18T08:27:12;-3.30;99.90
15131;DHT22;7666;50.920;4.628;2022-12-18T08:29:58;-3.20;99.90
15131;DHT22;7666;50.920;4.628;2022-12-18T08:32:44;-3.30;99.90
15131;DHT22;7666;50.920;4.628;2022-12-18T08:35:30;-3.20;99.90
15131;DHT22;7666;50.920;4.628;2022-12-18T08:38:16;-3.10;99.90
15131;DHT22;7666;50.920;4.628;2022-12-18T08:41:07;-2.90;99.90
15131;DHT22;7666;50.920;4.628;2022-12-18T08:43:53;-2.90;99.90
15131;DHT22;7666;50.920;4.628;2022-12-18T08:46:57;-2.70;99.90
15131;DHT22;7666;50.920;4.628;2022-12-18T08:49:43;-2.70;99.90
15131;DHT22;7666;50.920;4.628;2022-12-18T08:52:31;-2.90;99.90
15131;DHT22;7666;50.920;4.628;2022-12-18T08:55:18;-2.90;99.90
15131;DHT22;7666;50.920;4.628;2022-12-18T08:58:04;-3.00;99.90
15131;DHT22;7666;50.920;4.628;2022-12-18T09:00:50;-3.00;99.90
15131;DHT22;7666;50.920;4.628;2022-12-18T09:03:36;-3.00;99.90
15131;DHT22;7666;50.920;4.628;2022-12-18T09:06:23;-3.00;99.90
15131;DHT22;7666;50.920;4.628;2022-12-18T09:09:09;-3.00;99.90
15131;DHT22;7666;50.920;4.628;2022-12-18T09:11:55;-3.00;99.90
15131;DHT22;7666;50.920;4.628;2022-12-18T09:14:41;-3.00;99.90
15131;DHT22;7666;50.920;4.628;2022-12-18T09:17:27;-3.00;99.90
15131;DHT22;7666;50.920;4.628;2022-12-18T09:20:13;-2.90;99.90
15131;DHT22;7666;50.920;4.628;2022-12-18T09:22:59;-2.90;99.90
15131;DHT22;7666;50.920;4.628;2022-12-18T09:25:45;-2.90;99.90
15131;DHT22;7666;50.920;4.628;2022-12-18T09:28:31;-2.80;99.90
15131;DHT22;7666;50.920;4.628;2022-12-18T09:31:19;-2.80;99.90
15131;DHT22;7666;50.920;4.628;2022-12-18T09:34:05;-2.80;99.90
15131;DHT22;7666;50.920;4.628;2022-12-18T09:36:51;-2.80;99.90
15131;DHT22;7666;50.920;4.628;2022-12-18T09:39:38;-2.70;99.90
15131;DHT22;7666;50.920;4.628;2022-12-18T09:42:24;-2.70;99.90
15131;DHT22;7666;50.920;4.628;2022-12-18T09:45:13;-2.70;99.90
15131;DHT22;7666;50.920;4.628;2022-12-18T09:48:00;-2.60;99.90
15131;DHT22;7666;50.920;4.628;2022-12-18T09:50:48;-2.60;99.90
15131;DHT22;7666;50.920;4.628;2022-12-18T09:53:37;-2.50;99.90
15131;DHT22;7666;50.920;4.628;2022-12-18T09:56:27;-2.50;99.90
15131;DHT22;7666;50.920;4.628;2022-12-18T09:59:33;-2.40;99.90
15131;DHT22;7666;50.920;4.628;2022-12-18T10:02:25;-2.30;99.90
15131;DHT22;7666;50.920;4.628;2022-12-18T10:05:14;-2.20;99.90
15131;DHT22;7666;50.920;4.628;2022-12-18T10:17:13;-2.00;99.90
15131;DHT22;7666;50.920;4.628;2022-12-18T10:20:09;-2.00;99.90
15131;DHT22;7666;50.920;4.628;2022-12-18T10:28:49;-1.90;99.90
15131;DHT22;7666;50.920;4.628;2022-12-18T10:31:36;-1.90;99.90
15131;DHT22;7666;50.920;4.628;2022-12-18T10:34:23;-1.80;99.90
15131;DHT22;7666;50.920;4.628;2022-12-18T10:37:19;-1.80;99.90
15131;DHT22;7666;50.920;4.628;2022-12-18T10:40:15;-1.80;99.90
15131;DHT22;7666;50.920;4.628;2022-12-18T10:43:12;-1.80;99.90
15131;DHT22;7666;50.920;4.628;2022-12-18T10:46:01;-1.70;99.90
15131;DHT22;7666;50.920;4.628;2022-12-18T10:51:35;-1.60;99.90
15131;DHT22;7666;50.920;4.628;2022-12-18T10:54:23;-1.60;99.90
15131;DHT22;7666;50.920;4.628;2022-12-18T10:57:29;-1.50;99.90
15131;DHT22;7666;50.920;4.628;2022-12-18T11:03:31;-1.40;99.90
15131;DHT22;7666;50.920;4.628;2022-12-18T11:06:23;-1.30;99.90
15131;DHT22;7666;50.920;4.628;2022-12-18T11:09:21;-1.30;99.90
15131;DHT22;7666;50.920;4.628;2022-12-18T11:14:57;-1.20;99.90
15131;DHT22;7666;50.920;4.628;2022-12-18T11:17:48;-1.10;99.90
15131;DHT22;7666;50.920;4.628;2022-12-18T11:20:35;-1.00;99.90
15131;DHT22;7666;50.920;4.628;2022-12-18T11:23:22;-1.00;99.90
15131;DHT22;7666;50.920;4.628;2022-12-18T11:26:11;-1.00;99.90
15131;DHT22;7666;50.920;4.628;2022-12-18T11:29:10;-0.90;99.90
15131;DHT22;7666;50.920;4.628;2022-12-18T11:38:32;-0.70;99.90
15131;DHT22;7666;50.920;4.628;2022-12-18T11:41:32;-0.70;99.90
15131;DHT22;7666;50.920;4.628;2022-12-18T11:45:27;-0.70;99.90
15131;DHT22;7666;50.920;4.628;2022-12-18T11:51:28;-0.70;99.90
15131;DHT22;7666;50.920;4.628;2022-12-18T11:54:16;-0.70;99.90
15131;DHT22;7666;50.920;4.628;2022-12-18T11:57:21;-0.60;99.90
15131;DHT22;7666;50.920;4.628;2022-12-18T12:00:18;-0.60;99.90
15131;DHT22;7666;50.920;4.628;2022-12-18T12:06:24;-0.50;99.90
15131;DHT22;7666;50.920;4.628;2022-12-18T12:12:13;-0.40;99.90
15131;DHT22;7666;50.920;4.628;2022-12-18T12:21:54;-0.30;99.90
15131;DHT22;7666;50.920;4.628;2022-12-18T12:31:45;-0.40;99.90
15131;DHT22;7666;50.920;4.628;2022-12-18T12:35:02;-0.30;99.90
15131;DHT22;7666;50.920;4.628;2022-12-18T12:41:07;-0.10;99.90
15131;DHT22;7666;50.920;4.628;2022-12-18T12:44:19;-0.10;99.90
15131;DHT22;7666;50.920;4.628;2022-12-18T12:47:41;0.00;99.90
15131;DHT22;7666;50.920;4.628;2022-12-18T12:50:28;0.00;99.90
15131;DHT22;7666;50.920;4.628;2022-12-18T12:53:23;0.00;99.90
15131;DHT22;7666;50.920;4.628;2022-12-18T12:56:13;0.10;99.90
15131;DHT22;7666;50.920;4.628;2022-12-18T12:59:15;0.10;99.90
15131;DHT22;7666;50.920;4.628;2022-12-18T13:02:14;0.10;99.90
15131;DHT22;7666;50.920;4.628;2022-12-18T13:05:26;0.20;99.90
15131;DHT22;7666;50.920;4.628;2022-12-18T13:08:12;0.20;99.90
15131;DHT22;7666;50.920;4.628;2022-12-18T13:14:41;0.30;99.90
15131;DHT22;7666;50.920;4.628;2022-12-18T13:17:29;0.40;99.90
15131;DHT22;7666;50.920;4.628;2022-12-18T13:20:16;0.50;99.90
15131;DHT22;7666;50.920;4.628;2022-12-18T13:26:29;0.50;99.90
15131;DHT22;7666;50.920;4.628;2022-12-18T13:29:42;0.60;99.90
15131;DHT22;7666;50.920;4.628;2022-12-18T13:32:28;0.60;99.90
15131;DHT22;7666;50.920;4.628;2022-12-18T13:38:23;0.60;99.90
15131;DHT22;7666;50.920;4.628;2022-12-18T13:41:26;0.60;99.90
15131;DHT22;7666;50.920;4.628;2022-12-18T13:47:33;0.60;99.90
15131;DHT22;7666;50.920;4.628;2022-12-18T13:50:32;0.60;99.90
15131;DHT22;7666;50.920;4.628;2022-12-18T13:53:26;0.60;99.90
15131;DHT22;7666;50.920;4.628;2022-12-18T13:56:33;0.60;99.90
15131;DHT22;7666;50.920;4.628;2022-12-18T13:59:26;0.60;99.90
15131;DHT22;7666;50.920;4.628;2022-12-18T14:02:22;0.60;99.90
15131;DHT22;7666;50.920;4.628;2022-12-18T14:05:22;0.70;99.90
15131;DHT22;7666;50.920;4.628;2022-12-18T14:08:11;0.70;99.90
15131;DHT22;7666;50.920;4.628;2022-12-18T14:10:58;0.60;99.90
15131;DHT22;7666;50.920;4.628;2022-12-18T14:13:46;0.60;99.90
15131;DHT22;7666;50.920;4.628;2022-12-18T14:16:32;0.60;99.90
15131;DHT22;7666;50.920;4.628;2022-12-18T14:19:19;0.60;99.90
15131;DHT22;7666;50.920;4.628;2022-12-18T14:22:15;0.60;99.90
15131;DHT22;7666;50.920;4.628;2022-12-18T14:25:16;0.60;99.90
15131;DHT22;7666;50.920;4.628;2022-12-18T14:28:14;0.60;99.90
15131;DHT22;7666;50.920;4.628;2022-12-18T14:31:00;0.50;99.90
15131;DHT22;7666;50.920;4.628;2022-12-18T14:33:47;0.50;99.90
15131;DHT22;7666;50.920;4.628;2022-12-18T14:36:33;0.60;99.90
15131;DHT22;7666;50.920;4.628;2022-12-18T14:39:19;0.50;99.90
15131;DHT22;7666;50.920;4.628;2022-12-18T14:42:05;0.50;99.90
15131;DHT22;7666;50.920;4.628;2022-12-18T14:44:51;0.50;99.90
15131;DHT22;7666;50.920;4.628;2022-12-18T14:47:37;0.50;99.90
15131;DHT22;7666;50.920;4.628;2022-12-18T14:50:23;0.50;99.90
15131;DHT22;7666;50.920;4.628;2022-12-18T14:53:21;0.40;99.90
15131;DHT22;7666;50.920;4.628;2022-12-18T14:56:28;0.40;99.90
15131;DHT22;7666;50.920;4.628;2022-12-18T14:59:21;0.40;99.90
15131;DHT22;7666;50.920;4.628;2022-12-18T15:02:22;0.40;99.90
15131;DHT22;7666;50.920;4.628;2022-12-18T15:05:18;0.40;99.90
15131;DHT22;7666;50.920;4.628;2022-12-18T15:08:35;0.40;99.90
15131;DHT22;7666;50.920;4.628;2022-12-18T15:11:35;0.40;99.90
15131;DHT22;7666;50.920;4.628;2022-12-18T15:14:33;0.40;99.90
15131;DHT22;7666;50.920;4.628;2022-12-18T15:17:23;0.40;99.90
15131;DHT22;7666;50.920;4.628;2022-12-18T15:20:10;0.50;99.90
15131;DHT22;7666;50.920;4.628;2022-12-18T15:22:57;0.50;99.90
15131;DHT22;7666;50.920;4.628;2022-12-18T15:25:43;0.60;99.90
15131;DHT22;7666;50.920;4.628;2022-12-18T15:28:36;0.50;99.90
15131;DHT22;7666;50.920;4.628;2022-12-18T15:31:33;0.50;99.90
15131;DHT22;7666;50.920;4.628;2022-12-18T15:34:21;0.50;99.90
15131;DHT22;7666;50.920;4.628;2022-12-18T15:37:08;0.50;99.90
15131;DHT22;7666;50.920;4.628;2022-12-18T15:39:54;0.60;99.90
15131;DHT22;7666;50.920;4.628;2022-12-18T15:42:40;0.60;99.90
15131;DHT22;7666;50.920;4.628;2022-12-18T15:45:45;0.60;99.90
15131;DHT22;7666;50.920;4.628;2022-12-18T15:48:33;0.60;99.90
15131;DHT22;7666;50.920;4.628;2022-12-18T15:54:13;0.70;99.90
15131;DHT22;7666;50.920;4.628;2022-12-18T15:56:59;0.70;99.90
15131;DHT22;7666;50.920;4.628;2022-12-18T16:00:04;0.70;99.90
15131;DHT22;7666;50.920;4.628;2022-12-18T16:02:51;0.70;99.90
15131;DHT22;7666;50.920;4.628;2022-12-18T16:05:37;0.70;99.90
15131;DHT22;7666;50.920;4.628;2022-12-18T16:08:23;0.70;99.90
15131;DHT22;7666;50.920;4.628;2022-12-18T16:11:27;0.70;99.90
15131;DHT22;7666;50.920;4.628;2022-12-18T16:14:29;0.80;99.90
15131;DHT22;7666;50.920;4.628;2022-12-18T16:17:15;0.70;99.90
15131;DHT22;7666;50.920;4.628;2022-12-18T16:20:01;0.80;99.90
15131;DHT22;7666;50.920;4.628;2022-12-18T16:22:48;0.70;99.90
15131;DHT22;7666;50.920;4.628;2022-12-18T16:25:35;0.70;99.90
15131;DHT22;7666;50.920;4.628;2022-12-18T16:28:20;0.70;99.90
15131;DHT22;7666;50.920;4.628;2022-12-18T16:31:07;0.80;99.90
15131;DHT22;7666;50.920;4.628;2022-12-18T16:37:06;0.80;99.90
15131;DHT22;7666;50.920;4.628;2022-12-18T16:39:52;0.80;99.90
15131;DHT22;7666;50.920;4.628;2022-12-18T16:42:39;0.80;99.90
15131;DHT22;7666;50.920;4.628;2022-12-18T16:45:26;0.90;99.90
15131;DHT22;7666;50.920;4.628;2022-12-18T16:48:12;0.80;99.90
15131;DHT22;7666;50.920;4.628;2022-12-18T16:51:02;0.80;99.90
15131;DHT22;7666;50.920;4.628;2022-12-18T16:53:49;0.80;99.90
15131;DHT22;7666;50.920;4.628;2022-12-18T16:56:35;0.80;99.90
15131;DHT22;7666;50.920;4.628;2022-12-18T16:59:21;0.90;99.90
15131;DHT22;7666;50.920;4.628;2022-12-18T17:02:21;0.90;99.90
15131;DHT22;7666;50.920;4.628;2022-12-18T17:05:08;0.80;99.90
15131;DHT22;7666;50.920;4.628;2022-12-18T17:07:54;0.80;99.90
15131;DHT22;7666;50.920;4.628;2022-12-18T17:10:40;0.90;99.90
15131;DHT22;7666;50.920;4.628;2022-12-18T17:13:26;0.80;99.90
15131;DHT22;7666;50.920;4.628;2022-12-18T17:16:12;0.90;99.90
15131;DHT22;7666;50.920;4.628;2022-12-18T17:18:58;1.00;99.90
15131;DHT22;7666;50.920;4.628;2022-12-18T17:21:47;1.00;99.90
15131;DHT22;7666;50.920;4.628;2022-12-18T17:24:33;1.00;99.90
15131;DHT22;7666;50.920;4.628;2022-12-18T17:27:19;1.00;99.90
15131;DHT22;7666;50.920;4.628;2022-12-18T17:30:05;1.00;99.90
15131;DHT22;7666;50.920;4.628;2022-12-18T17:32:52;1.00;99.90
15131;DHT22;7666;50.920;4.628;2022-12-18T17:35:38;1.10;99.90
15131;DHT22;7666;50.920;4.628;2022-12-18T17:38:23;1.00;99.90
15131;DHT22;7666;50.920;4.628;2022-12-18T17:41:10;1.00;99.90
15131;DHT22;7666;50.920;4.628;2022-12-18T17:44:02;1.10;99.90
15131;DHT22;7666;50.920;4.628;2022-12-18T17:46:49;1.00;99.90
15131;DHT22;7666;50.920;4.628;2022-12-18T17:49:35;1.10;99.90
15131;DHT22;7666;50.920;4.628;2022-12-18T17:52:21;1.10;99.90
15131;DHT22;7666;50.920;4.628;2022-12-18T17:55:07;1.00;99.90
15131;DHT22;7666;50.920;4.628;2022-12-18T17:57:53;1.10;99.90
15131;DHT22;7666;50.920;4.628;2022-12-18T18:00:39;1.10;99.90
15131;DHT22;7666;50.920;4.628;2022-12-18T18:03:25;1.20;99.90
15131;DHT22;7666;50.920;4.628;2022-12-18T18:06:11;1.10;99.90
15131;DHT22;7666;50.920;4.628;2022-12-18T18:08:58;1.10;99.90
15131;DHT22;7666;50.920;4.628;2022-12-18T18:11:44;1.20;99.90
15131;DHT22;7666;50.920;4.628;2022-12-18T18:14:49;1.10;99.90
15131;DHT22;7666;50.920;4.628;2022-12-18T18:17:34;1.10;99.90
15131;DHT22;7666;50.920;4.628;2022-12-18T18:20:20;1.00;99.90
15131;DHT22;7666;50.920;4.628;2022-12-18T18:23:06;1.10;99.90
15131;DHT22;7666;50.920;4.628;2022-12-18T18:25:53;1.10;99.90
15131;DHT22;7666;50.920;4.628;2022-12-18T18:28:39;1.10;99.90
15131;DHT22;7666;50.920;4.628;2022-12-18T18:31:27;1.20;99.90
15131;DHT22;7666;50.920;4.628;2022-12-18T18:34:21;1.00;99.90
15131;DHT22;7666;50.920;4.628;2022-12-18T18:37:09;1.10;99.90
15131;DHT22;7666;50.920;4.628;2022-12-18T18:39:55;1.10;99.90
15131;DHT22;7666;50.920;4.628;2022-12-18T18:42:41;1.10;99.90
15131;DHT22;7666;50.920;4.628;2022-12-18T18:45:27;1.10;99.90
15131;DHT22;7666;50.920;4.628;2022-12-18T18:48:13;1.10;99.90
15131;DHT22;7666;50.920;4.628;2022-12-18T18:51:02;1.00;99.90
15131;DHT22;7666;50.920;4.628;2022-12-18T18:53:50;1.00;99.90
15131;DHT22;7666;50.920;4.628;2022-12-18T18:56:37;1.20;99.90
15131;DHT22;7666;50.920;4.628;2022-12-18T18:59:23;1.10;99.90
15131;DHT22;7666;50.920;4.628;2022-12-18T19:02:11;1.10;99.90
15131;DHT22;7666;50.920;4.628;2022-12-18T19:04:58;1.10;99.90
15131;DHT22;7666;50.920;4.628;2022-12-18T19:07:44;1.10;99.90
15131;DHT22;7666;50.920;4.628;2022-12-18T19:10:29;1.10;99.90
15131;DHT22;7666;50.920;4.628;2022-12-18T19:13:15;1.10;99.90
15131;DHT22;7666;50.920;4.628;2022-12-18T19:16:09;1.10;99.90
15131;DHT22;7666;50.920;4.628;2022-12-18T19:18:55;1.20;99.90
15131;DHT22;7666;50.920;4.628;2022-12-18T19:21:41;1.10;99.90
15131;DHT22;7666;50.920;4.628;2022-12-18T19:24:27;1.10;99.90
15131;DHT22;7666;50.920;4.628;2022-12-18T19:27:13;1.20;99.90
15131;DHT22;7666;50.920;4.628;2022-12-18T19:29:59;1.20;99.90
15131;DHT22;7666;50.920;4.628;2022-12-18T19:32:45;1.30;99.90
15131;DHT22;7666;50.920;4.628;2022-12-18T19:35:31;1.20;99.90
15131;DHT22;7666;50.920;4.628;2022-12-18T19:38:18;1.30;99.90
15131;DHT22;7666;50.920;4.628;2022-12-18T19:41:05;1.30;99.90
15131;DHT22;7666;50.920;4.628;2022-12-18T19:43:52;1.20;99.90
15131;DHT22;7666;50.920;4.628;2022-12-18T19:46:38;1.30;99.90
15131;DHT22;7666;50.920;4.628;2022-12-18T19:49:24;1.20;99.90
15131;DHT22;7666;50.920;4.628;2022-12-18T19:52:10;1.30;99.90
15131;DHT22;7666;50.920;4.628;2022-12-18T19:54:56;1.30;99.90